Time;durP1;ratioP1;P1;durP2;ratioP2;P2;SDS_P1;SDS_P2;PMS_P1;PMS_P2;Temp;Humidity;BMP_temperature;BMP_pressure;BME280_temperature;BME280_humidity;BME280_pressure;Samples;Min_cycle;Max_cycle;Signal;HPM_P1;HPM_P2
2023/01/09 00:02:14;;;;;;;3.10;0.80;;;;;;;;;;4960325;28;20034;-69
2023/01/09 00:04:40;;;;;;;5.43;1.48;;;;;;;;;;4939491;28;20034;-69
2023/01/09 00:07:06;;;;;;;3.50;1.02;;;;;;;;;;4955502;28;20667;-69
2023/01/09 00:09:32;;;;;;;10.35;0.88;;;;;;;;;;4943237;28;20293;-69
2023/01/09 00:11:59;;;;;;;2.92;0.90;;;;;;;;;;4940889;28;20115;-68
2023/01/09 00:14:25;;;;;;;;;;;;;;;;;;4942606;28;20373;-69
2023/01/09 00:16:53;;;;;;;3.10;0.90;;;;;;;;;;4937075;28;20250;-68
2023/01/09 00:19:20;;;;;;;5.47;0.95;;;;;;;;;;4940370;28;20051;-68
2023/01/09 00:21:46;;;;;;;2.10;0.73;;;;;;;;;;4944216;28;20862;-69
2023/01/09 00:24:12;;;;;;;;;;;;;;;;;;4937477;28;20049;-68
2023/01/09 00:26:38;;;;;;;2.60;0.75;;;;;;;;;;4945585;28;19922;-68
2023/01/09 00:29:04;;;;;;;5.88;0.80;;;;;;;;;;4942064;28;20828;-67
2023/01/09 00:31:30;;;;;;;;;;;;;;;;;;4944725;28;20027;-67
2023/01/09 00:33:59;;;;;;;5.10;0.80;;;;;;;;;;4941685;28;19924;-66
2023/01/09 00:36:26;;;;;;;2.63;0.80;;;;;;;;;;4946158;28;20035;-66
2023/01/09 00:38:52;;;;;;;7.35;0.80;;;;;;;;;;4937627;28;20122;-67
2023/01/09 00:41:18;;;;;;;;;;;;;;;;;;4942862;28;20041;-68
2023/01/09 00:43:46;;;;;;;2.30;0.70;;;;;;;;;;4942976;28;20321;-69
2023/01/09 00:46:13;;;;;;;4.15;0.90;;;;;;;;;;4935946;28;20093;-66
2023/01/09 00:48:41;;;;;;;3.28;0.75;;;;;;;;;;4941445;28;20089;-66
2023/01/09 00:51:07;;;;;;;4.88;0.90;;;;;;;;;;4938059;28;20034;-67
2023/01/09 00:53:35;;;;;;;2.55;0.77;;;;;;;;;;4954151;28;20153;-66
2023/01/09 00:56:05;;;;;;;4.68;0.80;;;;;;;;;;4938492;28;20043;-67
2023/01/09 00:58:33;;;;;;;2.60;0.52;;;;;;;;;;4933966;28;20030;-68
2023/01/09 01:00:59;;;;;;;1.80;0.63;;;;;;;;;;4953977;28;20229;-67
2023/01/09 01:03:26;;;;;;;4.15;0.95;;;;;;;;;;4936103;28;20034;-67
2023/01/09 01:08:43;;;;;;;4.75;0.77;;;;;;;;;;4943518;28;19999;-69
2023/01/09 01:11:11;;;;;;;4.28;0.70;;;;;;;;;;4942087;28;20051;-67
2023/01/09 01:13:39;;;;;;;4.03;0.70;;;;;;;;;;4944771;28;20030;-67
2023/01/09 01:16:10;;;;;;;4.70;0.70;;;;;;;;;;4935024;28;20397;-67
2023/01/09 01:18:36;;;;;;;2.63;0.65;;;;;;;;;;4941542;28;20055;-67
2023/01/09 01:21:09;;;;;;;6.55;0.70;;;;;;;;;;4938062;28;20141;-70
2023/01/09 01:23:36;;;;;;;2.53;0.60;;;;;;;;;;4944351;28;20543;-67
2023/01/09 01:26:06;;;;;;;4.15;0.80;;;;;;;;;;4937964;28;20035;-66
2023/01/09 01:28:33;;;;;;;3.13;0.70;;;;;;;;;;4946272;28;20049;-68
2023/01/09 01:30:59;;;;;;;2.75;0.88;;;;;;;;;;4934245;28;20038;-66
2023/01/09 01:33:25;;;;;;;5.82;0.70;;;;;;;;;;4939578;28;20069;-66
2023/01/09 01:35:52;;;;;;;;;;;;;;;;;;4938350;28;20041;-68
2023/01/09 01:38:21;;;;;;;3.08;0.68;;;;;;;;;;4943861;28;20197;-66
2023/01/09 01:40:52;;;;;;;2.90;0.77;;;;;;;;;;4939615;28;20595;-66
2023/01/09 01:43:18;;;;;;;3.67;0.82;;;;;;;;;;4944141;28;20062;-67
2023/01/09 01:45:44;;;;;;;3.20;0.63;;;;;;;;;;4941090;28;20053;-67
2023/01/09 01:48:13;;;;;;;3.50;0.50;;;;;;;;;;4940683;28;20031;-67
2023/01/09 01:50:47;;;;;;;5.38;0.90;;;;;;;;;;4931578;28;20603;-67
2023/01/09 01:53:16;;;;;;;3.20;0.70;;;;;;;;;;4940205;28;20037;-67
2023/01/09 01:55:46;;;;;;;3.22;0.65;;;;;;;;;;4942178;28;20042;-67
2023/01/09 01:58:13;;;;;;;3.85;0.80;;;;;;;;;;4937378;28;20031;-67
2023/01/09 02:00:42;;;;;;;1.95;0.57;;;;;;;;;;4939984;28;20129;-67
2023/01/09 02:03:08;;;;;;;3.63;0.55;;;;;;;;;;4936290;28;20034;-67
2023/01/09 02:05:35;;;;;;;4.03;0.70;;;;;;;;;;4943748;28;20318;-67
2023/01/09 02:08:02;;;;;;;3.35;0.60;;;;;;;;;;4932031;28;20141;-67
2023/01/09 02:10:27;;;;;;;;;;;;;;;;;;4937664;28;20034;-67
2023/01/09 02:12:54;;;;;;;0.80;0.35;;;;;;;;;;4934200;28;19918;-67
2023/01/09 02:15:20;;;;;;;4.88;0.60;;;;;;;;;;4937193;28;21063;-67
2023/01/09 02:18:05;;;;;;;2.05;0.60;;;;;;;;;;4939396;28;20418;-67
2023/01/09 02:20:31;;;;;;;2.97;0.60;;;;;;;;;;4935586;28;20047;-67
2023/01/09 02:22:57;;;;;;;;;;;;;;;;;;4939320;28;20035;-67
2023/01/09 02:25:26;;;;;;;3.22;0.75;;;;;;;;;;4943154;28;20271;-67
2023/01/09 02:28:18;;;;;;;3.05;0.65;;;;;;;;;;4944794;28;20738;-68
2023/01/09 02:30:49;;;;;;;3.50;0.60;;;;;;;;;;4944987;28;20141;-67
2023/01/09 02:33:15;;;;;;;5.75;0.70;;;;;;;;;;4942515;28;20085;-66
2023/01/09 02:36:00;;;;;;;2.92;0.60;;;;;;;;;;4959342;28;20081;-68
2023/01/09 02:38:30;;;;;;;5.03;0.77;;;;;;;;;;4959210;28;20446;-67
2023/01/09 02:41:01;;;;;;;4.10;0.70;;;;;;;;;;4953594;28;20034;-67
2023/01/09 02:43:28;;;;;;;3.90;0.60;;;;;;;;;;4943469;28;20137;-67
2023/01/09 02:45:57;;;;;;;7.32;2.42;;;;;;;;;;4932800;28;20034;-66
2023/01/09 02:48:23;;;;;;;15.93;8.82;;;;;;;;;;4943512;28;20035;-68
2023/01/09 02:50:49;;;;;;;;;;;;;;;;;;4940479;28;20046;-68
2023/01/09 02:53:33;;;;;;;11.75;5.25;;;;;;;;;;4941861;28;20367;-67
2023/01/09 02:56:19;;;;;;;9.35;3.55;;;;;;;;;;4936631;28;20034;-69
2023/01/09 02:59:02;;;;;;;8.73;1.40;;;;;;;;;;4945566;28;20105;-68
2023/01/09 03:01:31;;;;;;;3.05;0.60;;;;;;;;;;4942558;28;20548;-68
2023/01/09 03:04:06;;;;;;;3.55;0.88;;;;;;;;;;4939095;28;20022;-68
2023/01/09 03:06:47;;;;;;;4.30;0.70;;;;;;;;;;4941972;28;20049;-68
2023/01/09 03:09:19;;;;;;;5.03;0.82;;;;;;;;;;4941371;28;20023;-66
2023/01/09 03:12:21;;;;;;;4.93;0.90;;;;;;;;;;4946221;28;20030;-67
2023/01/09 03:14:49;;;;;;;7.85;1.00;;;;;;;;;;4892844;29;20327;-67
2023/01/09 03:17:18;;;;;;;5.13;0.88;;;;;;;;;;4895157;29;20610;-67
2023/01/09 03:19:46;;;;;;;5.70;0.95;;;;;;;;;;4892048;29;21771;-68
2023/01/09 03:22:12;;;;;;;4.85;0.70;;;;;;;;;;4889129;29;20047;-67
2023/01/09 03:24:41;;;;;;;;;;;;;;;;;;4897685;29;20484;-67
2023/01/09 03:27:08;;;;;;;4.93;1.05;;;;;;;;;;4898426;29;19923;-67
2023/01/09 03:29:37;;;;;;;7.78;0.98;;;;;;;;;;4900933;29;20047;-67
2023/01/09 03:32:03;;;;;;;7.25;1.02;;;;;;;;;;4895725;29;20087;-67
2023/01/09 03:34:30;;;;;;;5.53;1.05;;;;;;;;;;4898707;29;20036;-68
2023/01/09 03:36:59;;;;;;;7.07;1.13;;;;;;;;;;4893343;29;20050;-67
2023/01/09 03:39:25;;;;;;;6.05;1.05;;;;;;;;;;4883470;29;20744;-67
2023/01/09 03:41:51;;;;;;;;;;;;;;;;;;4897618;29;20050;-67
2023/01/09 03:44:17;;;;;;;7.43;1.13;;;;;;;;;;4900056;29;19914;-67
2023/01/09 03:46:43;;;;;;;6.68;1.05;;;;;;;;;;4899767;29;20454;-66
2023/01/09 03:49:09;;;;;;;;;;;;;;;;;;4919958;28;20057;-67
2023/01/09 03:51:35;;;;;;;7.35;1.20;;;;;;;;;;4942862;28;20316;-67
2023/01/09 03:54:02;;;;;;;4.75;0.88;;;;;;;;;;4934399;28;20039;-68
2023/01/09 03:56:28;;;;;;;;;;;;;;;;;;4945497;28;20049;-67
2023/01/09 03:58:54;;;;;;;8.27;1.30;;;;;;;;;;4938151;28;19918;-67
2023/01/09 04:01:20;;;;;;;;;;;;;;;;;;4941563;28;20027;-67
2023/01/09 04:03:46;;;;;;;7.30;1.17;;;;;;;;;;4942988;28;20360;-67
2023/01/09 04:06:12;;;;;;;9.95;1.05;;;;;;;;;;4938733;28;20561;-67
2023/01/09 04:08:38;;;;;;;8.55;1.40;;;;;;;;;;4946093;28;20484;-67
2023/01/09 04:11:04;;;;;;;;;;;;;;;;;;4942806;28;20043;-67
2023/01/09 04:13:31;;;;;;;6.82;1.17;;;;;;;;;;4947938;28;19918;-67
2023/01/09 04:15:57;;;;;;;5.43;1.05;;;;;;;;;;4950971;28;20046;-66
2023/01/09 04:18:23;;;;;;;;;;;;;;;;;;4942714;28;20038;-66
2023/01/09 04:20:49;;;;;;;7.25;1.20;;;;;;;;;;4942401;28;19913;-66
2023/01/09 04:23:15;;;;;;;;;;;;;;;;;;4942177;28;20030;-68
2023/01/09 04:25:41;;;;;;;9.00;1.30;;;;;;;;;;4943863;28;20438;-67
2023/01/09 04:28:08;;;;;;;6.70;1.33;;;;;;;;;;4940390;28;20042;-66
2023/01/09 04:30:34;;;;;;;;;;;;;;;;;;4956123;28;20062;-66
2023/01/09 04:33:00;;;;;;;6.65;1.15;;;;;;;;;;4938015;28;20403;-66
2023/01/09 04:35:26;;;;;;;8.68;1.30;;;;;;;;;;4944954;28;20038;-67
2023/01/09 04:37:52;;;;;;;6.68;1.30;;;;;;;;;;4936382;28;20128;-67
2023/01/09 04:40:18;;;;;;;4.72;0.93;;;;;;;;;;4942873;28;20109;-67
2023/01/09 04:42:44;;;;;;;;;;;;;;;;;;4956632;28;20292;-66
2023/01/09 04:45:13;;;;;;;8.13;1.20;;;;;;;;;;4935856;28;19918;-66
2023/01/09 04:47:39;;;;;;;7.68;1.50;;;;;;;;;;4939116;28;20026;-66
2023/01/09 04:50:05;;;;;;;7.90;1.40;;;;;;;;;;4939021;28;20038;-69
2023/01/09 04:52:31;;;;;;;;;;;;;;;;;;4944024;28;20215;-67
2023/01/09 04:54:57;;;;;;;9.30;1.35;;;;;;;;;;4942005;28;20443;-67
2023/01/09 04:57:23;;;;;;;10.30;1.52;;;;;;;;;;4946624;28;20034;-69
2023/01/09 04:59:49;;;;;;;;;;;;;;;;;;4938599;28;20043;-68
2023/01/09 05:02:16;;;;;;;9.27;1.50;;;;;;;;;;4944531;28;19914;-66
2023/01/09 05:04:42;;;;;;;;;;;;;;;;;;4960682;28;20392;-68
2023/01/09 05:07:08;;;;;;;7.78;1.55;;;;;;;;;;4940035;28;19917;-68
2023/01/09 05:09:34;;;;;;;6.63;1.27;;;;;;;;;;4943931;28;20027;-68
2023/01/09 05:12:01;;;;;;;7.88;1.30;;;;;;;;;;4941722;28;20555;-68
2023/01/09 05:14:27;;;;;;;;;;;;;;;;;;4944150;28;20030;-68
2023/01/09 05:16:53;;;;;;;11.07;1.67;;;;;;;;;;4937177;28;19992;-67
2023/01/09 05:19:19;;;;;;;7.38;1.45;;;;;;;;;;4942636;28;20046;-68
2023/01/09 05:21:45;;;;;;;6.22;1.27;;;;;;;;;;4940878;28;20042;-67
2023/01/09 05:24:11;;;;;;;6.75;1.38;;;;;;;;;;4942715;28;20599;-68
2023/01/09 05:26:38;;;;;;;8.32;1.60;;;;;;;;;;4942027;28;20039;-68
2023/01/09 05:29:04;;;;;;;9.75;1.50;;;;;;;;;;4937170;28;20521;-68
2023/01/09 05:31:30;;;;;;;8.63;1.48;;;;;;;;;;4943179;28;20031;-68
2023/01/09 05:33:58;;;;;;;;;;;;;;;;;;4936411;28;20470;-68
2023/01/09 05:36:24;;;;;;;10.23;1.50;;;;;;;;;;4939982;28;19914;-68
2023/01/09 05:38:50;;;;;;;9.05;1.60;;;;;;;;;;4936799;28;20043;-68
2023/01/09 05:41:17;;;;;;;9.00;1.45;;;;;;;;;;4941946;28;20034;-68
2023/01/09 05:43:43;;;;;;;8.68;1.52;;;;;;;;;;4941126;28;20431;-68
2023/01/09 05:46:09;;;;;;;9.23;1.70;;;;;;;;;;4933117;28;20066;-68
2023/01/09 05:48:36;;;;;;;11.18;1.70;;;;;;;;;;4939225;28;20031;-68
2023/01/09 05:51:03;;;;;;;9.95;1.73;;;;;;;;;;4947126;28;20076;-68
2023/01/09 05:53:28;;;;;;;;;;;;;;;;;;4940441;28;20052;-68
2023/01/09 05:55:55;;;;;;;8.55;1.63;;;;;;;;;;4937862;28;19945;-68
2023/01/09 05:58:21;;;;;;;10.82;1.67;;;;;;;;;;4941723;28;20035;-68
2023/01/09 06:00:48;;;;;;;9.65;1.95;;;;;;;;;;4941182;28;20034;-68
2023/01/09 06:03:14;;;;;;;8.77;1.60;;;;;;;;;;4938817;28;20441;-68
2023/01/09 06:05:40;;;;;;;8.10;1.70;;;;;;;;;;4935793;28;20117;-68
2023/01/09 06:08:09;;;;;;;11.85;2.35;;;;;;;;;;4934144;28;20128;-68
2023/01/09 06:10:35;;;;;;;10.20;1.60;;;;;;;;;;4953544;28;20042;-68
2023/01/09 06:13:02;;;;;;;13.10;1.90;;;;;;;;;;4937430;28;20476;-68
2023/01/09 06:15:28;;;;;;;9.85;1.67;;;;;;;;;;4937191;28;20371;-67
2023/01/09 06:17:54;;;;;;;;;;;;;;;;;;4933011;28;20085;-67
2023/01/09 06:20:20;;;;;;;10.23;2.10;;;;;;;;;;4949007;28;19926;-67
2023/01/09 06:22:46;;;;;;;9.45;1.77;;;;;;;;;;4942465;28;20114;-67
2023/01/09 06:25:13;;;;;;;9.95;1.70;;;;;;;;;;4936255;28;20365;-67
2023/01/09 06:27:39;;;;;;;;;;;;;;;;;;4940111;28;20093;-68
2023/01/09 06:30:05;;;;;;;11.13;1.85;;;;;;;;;;4933683;28;20228;-66
2023/01/09 06:32:31;;;;;;;12.88;2.00;;;;;;;;;;4946635;28;20283;-66
2023/01/09 06:34:57;;;;;;;12.82;2.25;;;;;;;;;;4934686;28;20030;-67
2023/01/09 06:37:24;;;;;;;11.63;2.17;;;;;;;;;;4943306;28;20028;-67
2023/01/09 06:39:50;;;;;;;8.30;1.83;;;;;;;;;;4928394;28;20045;-66
2023/01/09 06:42:16;;;;;;;;;;;;;;;;;;4935713;28;20389;-67
2023/01/09 06:44:42;;;;;;;11.00;2.22;;;;;;;;;;4930562;28;20243;-68
2023/01/09 06:47:08;;;;;;;12.98;2.17;;;;;;;;;;4931504;28;20077;-69
2023/01/09 06:49:34;;;;;;;13.23;2.38;;;;;;;;;;4934953;28;20138;-66
2023/01/09 06:52:04;;;;;;;13.18;2.35;;;;;;;;;;4937290;28;20033;-67
2023/01/09 06:54:30;;;;;;;10.60;2.30;;;;;;;;;;4937909;28;20034;-67
2023/01/09 06:56:56;;;;;;;12.25;2.35;;;;;;;;;;4931308;28;20046;-67
2023/01/09 06:59:23;;;;;;;12.90;2.30;;;;;;;;;;4939283;28;20046;-67
2023/01/09 07:01:49;;;;;;;14.07;2.65;;;;;;;;;;4939136;28;20353;-67
2023/01/09 07:04:16;;;;;;;13.85;3.50;;;;;;;;;;4939377;28;20822;-67
2023/01/09 07:06:42;;;;;;;20.08;6.75;;;;;;;;;;4936865;28;20039;-68
2023/01/09 07:09:12;;;;;;;16.85;4.82;;;;;;;;;;4933832;28;21637;-67
2023/01/09 07:11:38;;;;;;;14.38;4.70;;;;;;;;;;4938484;28;20033;-68
2023/01/09 07:14:05;;;;;;;14.20;4.45;;;;;;;;;;4938131;28;20054;-67
2023/01/09 07:16:32;;;;;;;19.08;4.35;;;;;;;;;;4957462;28;20050;-67
2023/01/09 07:18:58;;;;;;;15.45;3.28;;;;;;;;;;4950415;28;20034;-67
2023/01/09 07:21:24;;;;;;;15.77;3.28;;;;;;;;;;4940824;28;21086;-67
2023/01/09 07:23:50;;;;;;;14.75;2.55;;;;;;;;;;4938078;28;20035;-67
2023/01/09 07:26:17;;;;;;;13.32;2.60;;;;;;;;;;4940340;28;20126;-67
2023/01/09 07:28:43;;;;;;;13.55;2.42;;;;;;;;;;4941845;28;20051;-67
2023/01/09 07:31:09;;;;;;;9.63;2.35;;;;;;;;;;4938502;28;23944;-67
2023/01/09 07:33:35;;;;;;;19.02;2.50;;;;;;;;;;4944041;28;20023;-67
2023/01/09 07:36:01;;;;;;;11.40;2.30;;;;;;;;;;4953727;28;20421;-67
2023/01/09 07:38:28;;;;;;;12.43;2.20;;;;;;;;;;4941514;28;20031;-67
2023/01/09 07:40:54;;;;;;;;;;;;;;;;;;4942183;28;20831;-67
2023/01/09 07:43:20;;;;;;;13.13;2.63;;;;;;;;;;4941094;28;19928;-67
2023/01/09 07:45:46;;;;;;;10.63;2.72;;;;;;;;;;4941610;28;20061;-67
2023/01/09 07:48:12;;;;;;;;;;;;;;;;;;4937141;28;20038;-67
2023/01/09 07:50:38;;;;;;;12.20;4.50;;;;;;;;;;4941397;28;20025;-67
2023/01/09 07:53:04;;;;;;;15.88;5.07;;;;;;;;;;4940121;28;20026;-68
2023/01/09 07:55:30;;;;;;;16.80;4.95;;;;;;;;;;4937669;28;20488;-68
2023/01/09 07:57:57;;;;;;;13.90;4.25;;;;;;;;;;4947344;28;20478;-67
2023/01/09 08:00:23;;;;;;;19.25;4.30;;;;;;;;;;4937103;28;20729;-67
2023/01/09 08:02:52;;;;;;;14.60;5.47;;;;;;;;;;4939339;28;20559;-67
2023/01/09 08:05:19;;;;;;;11.95;3.65;;;;;;;;;;4936396;28;20043;-67
2023/01/09 08:07:45;;;;;;;18.83;5.00;;;;;;;;;;4941819;28;20541;-67
2023/01/09 08:10:11;;;;;;;16.00;4.63;;;;;;;;;;4937988;28;20062;-67
2023/01/09 08:12:37;;;;;;;;;;;;;;;;;;4932131;28;20038;-67
2023/01/09 08:15:04;;;;;;;18.02;5.40;;;;;;;;;;4943311;28;19914;-67
2023/01/09 08:17:30;;;;;;;17.83;5.38;;;;;;;;;;4941252;28;20018;-67
2023/01/09 08:19:56;;;;;;;48.58;6.95;;;;;;;;;;4934912;28;20125;-67
2023/01/09 08:22:22;;;;;;;49.40;5.28;;;;;;;;;;4937756;28;20399;-67
2023/01/09 08:24:48;;;;;;;;;;;;;;;;;;4942577;28;20240;-68
2023/01/09 08:27:14;;;;;;;11.65;2.70;;;;;;;;;;4940336;28;20457;-67
2023/01/09 08:29:41;;;;;;;12.07;2.55;;;;;;;;;;4938106;28;20109;-67
2023/01/09 08:32:06;;;;;;;;;;;;;;;;;;4939309;28;20061;-68
2023/01/09 08:34:33;;;;;;;8.07;1.70;;;;;;;;;;4943236;28;20004;-67
2023/01/09 08:36:59;;;;;;;;;;;;;;;;;;4953178;28;20038;-67
2023/01/09 08:39:25;;;;;;;9.88;1.63;;;;;;;;;;4943717;28;19914;-68
2023/01/09 08:47:22;;;;;;;9.88;1.90;;;;;;;;;;4940907;28;20045;-67
2023/01/09 08:49:49;;;;;;;9.07;1.98;;;;;;;;;;4955183;28;20035;-67
2023/01/09 08:52:15;;;;;;;8.20;1.95;;;;;;;;;;4941913;28;20098;-67
2023/01/09 08:54:41;;;;;;;10.73;1.83;;;;;;;;;;4955615;28;20042;-67
2023/01/09 08:57:07;;;;;;;6.13;1.40;;;;;;;;;;4935358;28;20760;-66
2023/01/09 08:59:34;;;;;;;5.18;1.30;;;;;;;;;;4941313;28;20033;-67
2023/01/09 09:02:00;;;;;;;6.53;1.55;;;;;;;;;;4937901;28;20034;-66
2023/01/09 09:04:26;;;;;;;8.45;1.98;;;;;;;;;;4953544;28;20074;-68
2023/01/09 09:06:52;;;;;;;6.65;1.65;;;;;;;;;;4935104;28;20035;-66
2023/01/09 09:09:18;;;;;;;5.28;1.10;;;;;;;;;;4938478;28;20031;-66
2023/01/09 09:11:45;;;;;;;3.85;1.00;;;;;;;;;;4939060;28;20354;-66
2023/01/09 09:16:56;;;;;;;36.67;2.97;;;;;;;;;;4937139;28;20057;-68
2023/01/09 09:19:22;;;;;;;16.38;2.13;;;;;;;;;;4942177;28;20081;-68
2023/01/09 09:21:49;;;;;;;8.18;1.08;;;;;;;;;;4942268;28;20050;-68
2023/01/09 09:24:15;;;;;;;5.30;0.75;;;;;;;;;;4940734;28;20105;-68
2023/01/09 09:26:41;;;;;;;3.30;0.60;;;;;;;;;;4935860;28;20039;-68
2023/01/09 09:29:07;;;;;;;4.60;0.70;;;;;;;;;;4936662;28;20027;-68
2023/01/09 09:31:33;;;;;;;9.48;1.98;;;;;;;;;;4939175;28;20035;-68
2023/01/09 09:33:59;;;;;;;8.30;1.60;;;;;;;;;;4932839;28;20317;-68
2023/01/09 09:36:26;;;;;;;4.47;1.00;;;;;;;;;;4937290;28;20564;-68
2023/01/09 09:38:52;;;;;;;7.75;2.53;;;;;;;;;;4933544;28;20097;-66
2023/01/09 09:44:43;;;;;;;10.27;1.92;;;;;;;;;;4939891;28;20828;-69
2023/01/09 09:47:09;;;;;;;6.15;1.65;;;;;;;;;;4952094;28;20041;-66
2023/01/09 09:49:40;;;;;;;6.43;1.50;;;;;;;;;;4941219;28;20041;-67
2023/01/09 09:52:06;;;;;;;8.68;1.40;;;;;;;;;;4939949;28;20924;-68
2023/01/09 09:54:34;;;;;;;6.30;1.90;;;;;;;;;;4938997;28;20226;-68
2023/01/09 09:57:03;;;;;;;5.47;1.17;;;;;;;;;;4936816;28;20039;-66
2023/01/09 09:59:35;;;;;;;5.22;1.23;;;;;;;;;;4940589;28;20113;-68
2023/01/09 10:02:10;;;;;;;3.80;0.95;;;;;;;;;;4952732;28;20992;-68
2023/01/09 10:04:39;;;;;;;7.73;1.40;;;;;;;;;;4939930;28;20466;-66
2023/01/09 10:07:08;;;;;;;8.80;1.58;;;;;;;;;;4932050;28;20027;-68
2023/01/09 10:09:34;;;;;;;3.92;0.90;;;;;;;;;;4938369;28;20054;-66
2023/01/09 10:12:10;;;;;;;2.53;0.63;;;;;;;;;;4934858;28;20027;-66
2023/01/09 10:14:36;;;;;;;5.18;0.90;;;;;;;;;;4936198;28;20436;-66
2023/01/09 10:17:09;;;;;;;6.80;1.52;;;;;;;;;;4934045;28;20062;-66
2023/01/09 10:19:54;;;;;;;6.55;1.95;;;;;;;;;;4938913;28;20242;-66
2023/01/09 10:22:26;;;;;;;7.85;1.58;;;;;;;;;;4938765;28;20547;-66
2023/01/09 10:24:58;;;;;;;7.07;1.80;;;;;;;;;;4933726;28;20035;-66
2023/01/09 10:27:24;;;;;;;17.05;2.30;;;;;;;;;;4954857;28;20109;-66
2023/01/09 10:30:09;;;;;;;21.77;3.30;;;;;;;;;;4951005;28;20212;-66
2023/01/09 10:32:51;;;;;;;9.45;2.38;;;;;;;;;;4938489;28;20073;-66
2023/01/09 10:35:36;;;;;;;14.65;1.25;;;;;;;;;;4937257;28;20465;-66
2023/01/09 10:38:05;;;;;;;4.40;1.25;;;;;;;;;;4952899;28;20031;-67
2023/01/09 10:40:50;;;;;;;6.53;1.42;;;;;;;;;;4940102;28;20035;-66
2023/01/09 10:43:27;;;;;;;9.23;1.60;;;;;;;;;;4945972;28;20031;-67
2023/01/09 10:45:56;;;;;;;5.03;1.25;;;;;;;;;;4955258;28;20885;-66
2023/01/09 10:48:22;;;;;;;9.52;1.55;;;;;;;;;;4937150;28;20045;-67
2023/01/09 10:50:50;;;;;;;4.35;1.00;;;;;;;;;;4937904;28;20042;-67
2023/01/09 10:53:20;;;;;;;3.05;0.90;;;;;;;;;;4938246;28;20035;-67
2023/01/09 10:55:47;;;;;;;5.50;0.90;;;;;;;;;;4942696;28;20058;-67
2023/01/09 10:58:19;;;;;;;4.72;0.90;;;;;;;;;;4936551;28;20041;-67
2023/01/09 11:00:47;;;;;;;4.78;0.90;;;;;;;;;;4938323;28;20031;-67
2023/01/09 11:03:13;;;;;;;4.88;1.00;;;;;;;;;;4936061;28;20039;-67
2023/01/09 11:05:40;;;;;;;4.80;1.10;;;;;;;;;;4939902;28;20188;-67
2023/01/09 11:08:13;;;;;;;3.83;0.88;;;;;;;;;;4941997;28;20425;-67
2023/01/09 11:10:47;;;;;;;5.85;1.20;;;;;;;;;;4960018;28;20027;-67
2023/01/09 11:13:18;;;;;;;5.68;0.98;;;;;;;;;;4937730;28;20043;-67
2023/01/09 11:15:44;;;;;;;105.25;6.95;;;;;;;;;;4935264;28;20061;-68
2023/01/09 11:18:18;;;;;;;9.75;1.33;;;;;;;;;;4940180;28;21095;-65
2023/01/09 11:20:45;;;;;;;7.07;1.67;;;;;;;;;;4940263;28;20046;-65
2023/01/09 11:23:31;;;;;;;11.45;2.10;;;;;;;;;;4935972;28;20038;-67
2023/01/09 11:25:59;;;;;;;9.77;1.80;;;;;;;;;;4939706;28;20083;-66
2023/01/09 11:28:25;;;;;;;10.25;1.50;;;;;;;;;;4941355;28;20046;-67
2023/01/09 11:30:53;;;;;;;12.45;2.03;;;;;;;;;;4938121;28;20150;-66
2023/01/09 11:33:23;;;;;;;6.53;1.80;;;;;;;;;;4941209;28;20109;-67
2023/01/09 11:36:04;;;;;;;15.95;2.55;;;;;;;;;;4940026;28;20070;-66
2023/01/09 11:38:32;;;;;;;6.72;1.70;;;;;;;;;;4943010;28;20549;-66
2023/01/09 11:41:05;;;;;;;6.72;1.23;;;;;;;;;;4935863;28;20054;-67
2023/01/09 11:43:37;;;;;;;48.72;4.40;;;;;;;;;;4942714;28;20114;-67
2023/01/09 11:46:07;;;;;;;9.60;1.70;;;;;;;;;;4936489;28;20123;-65
2023/01/09 11:48:41;;;;;;;15.15;2.45;;;;;;;;;;4940919;28;20054;-67
2023/01/09 11:51:17;;;;;;;4.28;1.20;;;;;;;;;;4938578;28;20077;-66
2023/01/09 11:53:53;;;;;;;15.00;2.53;;;;;;;;;;4944438;28;20572;-67
2023/01/09 11:56:19;;;;;;;5.67;1.03;;;;;;;;;;4941378;28;20070;-65
2023/01/09 11:58:45;;;;;;;4.57;0.90;;;;;;;;;;4941872;28;20594;-65
2023/01/09 12:01:26;;;;;;;13.50;1.55;;;;;;;;;;4936687;28;20035;-66
2023/01/09 12:03:59;;;;;;;39.40;3.72;;;;;;;;;;4941245;28;20583;-66
2023/01/09 12:06:43;;;;;;;41.75;4.03;;;;;;;;;;4941332;28;20035;-65
2023/01/09 12:09:17;;;;;;;8.60;1.60;;;;;;;;;;4933859;28;20038;-64
2023/01/09 12:12:08;;;;;;;10.40;1.40;;;;;;;;;;4949978;28;20667;-65
2023/01/09 12:14:40;;;;;;;5.20;0.90;;;;;;;;;;4948443;28;20321;-66
2023/01/09 12:17:34;;;;;;;4.53;1.05;;;;;;;;;;4931469;28;20042;-65
2023/01/09 12:20:00;;;;;;;6.65;0.90;;;;;;;;;;4931772;28;20121;-67
2023/01/09 12:22:35;;;;;;;43.15;3.63;;;;;;;;;;4940505;28;20043;-66
2023/01/09 12:25:02;;;;;;;39.87;3.40;;;;;;;;;;4938085;28;20066;-66
2023/01/09 12:27:48;;;;;;;23.67;3.03;;;;;;;;;;4936954;28;20039;-66
2023/01/09 12:30:21;;;;;;;45.88;2.95;;;;;;;;;;4936989;28;20321;-66
2023/01/09 12:32:56;;;;;;;9.13;1.05;;;;;;;;;;4956556;28;20399;-66
2023/01/09 12:35:30;;;;;;;7.77;1.40;;;;;;;;;;4943031;28;20564;-67
2023/01/09 12:38:13;;;;;;;20.40;2.08;;;;;;;;;;4938717;28;20022;-66
2023/01/09 12:40:55;;;;;;;4.70;1.27;;;;;;;;;;4940623;28;20721;-67
2023/01/09 12:43:33;;;;;;;7.45;1.50;;;;;;;;;;4939377;28;20023;-66
2023/01/09 12:46:05;;;;;;;7.40;1.77;;;;;;;;;;4946604;28;20378;-66
2023/01/09 12:48:50;;;;;;;6.15;1.13;;;;;;;;;;4939610;28;20474;-66
2023/01/09 12:51:25;;;;;;;5.60;1.20;;;;;;;;;;4941799;28;20912;-66
2023/01/09 12:53:51;;;;;;;5.10;1.17;;;;;;;;;;4938090;28;20026;-66
2023/01/09 12:56:24;;;;;;;5.93;1.73;;;;;;;;;;4940661;28;20041;-65
2023/01/09 12:59:08;;;;;;;17.63;4.13;;;;;;;;;;4937225;28;20038;-67
2023/01/09 13:02:01;;;;;;;55.88;5.40;;;;;;;;;;4941822;28;20428;-65
2023/01/09 13:04:33;;;;;;;23.15;3.17;;;;;;;;;;4922392;28;20038;-65
2023/01/09 13:07:02;;;;;;;4.72;0.82;;;;;;;;;;4953010;28;20030;-66
2023/01/09 13:09:47;;;;;;;5.75;1.30;;;;;;;;;;4938160;28;20150;-67
2023/01/09 13:12:15;;;;;;;6.25;1.52;;;;;;;;;;4936392;28;20031;-67
2023/01/09 13:14:51;;;;;;;6.22;1.05;;;;;;;;;;4939294;28;20302;-66
2023/01/09 13:17:23;;;;;;;5.82;1.13;;;;;;;;;;4939099;28;20030;-67
2023/01/09 13:19:49;;;;;;;8.07;1.20;;;;;;;;;;4942378;28;20042;-66
2023/01/09 13:22:17;;;;;;;4.95;1.00;;;;;;;;;;4940999;28;20043;-68
2023/01/09 13:24:46;;;;;;;7.55;1.70;;;;;;;;;;4938889;28;20915;-68
2023/01/09 13:27:22;;;;;;;5.70;1.30;;;;;;;;;;4935802;28;20573;-68
2023/01/09 13:29:51;;;;;;;6.30;1.00;;;;;;;;;;4940885;28;20027;-68
2023/01/09 13:32:41;;;;;;;10.32;1.55;;;;;;;;;;4941391;28;20034;-66
2023/01/09 13:35:12;;;;;;;5.05;1.17;;;;;;;;;;4935160;28;20029;-66
2023/01/09 13:37:38;;;;;;;7.15;1.00;;;;;;;;;;4942051;28;20043;-68
2023/01/09 13:40:06;;;;;;;4.07;1.05;;;;;;;;;;4935786;28;20117;-67
2023/01/09 13:42:36;;;;;;;7.05;1.77;;;;;;;;;;4940133;28;20086;-67
2023/01/09 13:45:15;;;;;;;5.93;1.45;;;;;;;;;;4935533;28;20097;-66
2023/01/09 13:47:41;;;;;;;7.38;2.30;;;;;;;;;;4939304;28;20030;-67
2023/01/09 13:50:10;;;;;;;6.25;1.80;;;;;;;;;;4937269;28;20030;-67
2023/01/09 13:52:42;;;;;;;4.35;0.90;;;;;;;;;;4939031;28;20031;-67
2023/01/09 13:55:14;;;;;;;4.25;1.00;;;;;;;;;;4935202;28;20154;-67
2023/01/09 13:57:58;;;;;;;5.38;1.25;;;;;;;;;;4941817;28;20283;-67
2023/01/09 14:00:24;;;;;;;3.30;0.90;;;;;;;;;;4947864;28;20363;-67
2023/01/09 14:03:03;;;;;;;7.82;1.30;;;;;;;;;;4944918;28;20038;-67
2023/01/09 14:05:29;;;;;;;4.70;0.90;;;;;;;;;;4940539;28;20034;-67
2023/01/09 14:08:31;;;;;;;4.75;0.80;;;;;;;;;;4936622;28;20409;-68
2023/01/09 14:10:59;;;;;;;5.18;0.98;;;;;;;;;;4889459;29;20110;-67
2023/01/09 14:13:27;;;;;;;6.22;1.02;;;;;;;;;;4890948;29;20150;-67
2023/01/09 14:16:01;;;;;;;4.22;0.90;;;;;;;;;;4886883;29;20465;-66
2023/01/09 14:18:32;;;;;;;5.35;0.95;;;;;;;;;;4890989;29;20083;-68
2023/01/09 14:20:58;;;;;;;3.85;0.80;;;;;;;;;;4888438;29;20596;-67
2023/01/09 14:23:26;;;;;;;5.78;1.38;;;;;;;;;;4891741;29;20398;-71
2023/01/09 14:25:53;;;;;;;5.75;1.50;;;;;;;;;;4890225;29;20144;-71
2023/01/09 14:28:20;;;;;;;5.32;1.20;;;;;;;;;;4890032;29;20048;-71
2023/01/09 14:30:52;;;;;;;5.22;1.20;;;;;;;;;;4891022;29;20514;-72
2023/01/09 14:33:18;;;;;;;7.03;1.80;;;;;;;;;;4888095;29;20040;-71
2023/01/09 14:35:50;;;;;;;20.55;2.70;;;;;;;;;;4888806;29;20032;-69
2023/01/09 14:38:26;;;;;;;13.35;1.90;;;;;;;;;;4893473;29;20055;-69
2023/01/09 14:40:54;;;;;;;9.18;1.67;;;;;;;;;;4892216;29;20741;-69
2023/01/09 14:43:39;;;;;;;9.10;1.40;;;;;;;;;;4889419;29;20298;-72
2023/01/09 14:46:10;;;;;;;7.25;1.10;;;;;;;;;;4931293;28;20054;-73
2023/01/09 14:48:40;;;;;;;6.05;1.00;;;;;;;;;;4942333;28;20094;-71
2023/01/09 14:51:09;;;;;;;6.85;0.90;;;;;;;;;;4939214;28;20023;-71
2023/01/09 14:53:36;;;;;;;7.10;1.30;;;;;;;;;;4955882;28;20145;-71
2023/01/09 14:56:06;;;;;;;6.63;0.80;;;;;;;;;;4940767;28;20074;-72
2023/01/09 14:58:33;;;;;;;9.68;1.20;;;;;;;;;;4943533;28;20449;-71
2023/01/09 15:01:08;;;;;;;6.78;1.33;;;;;;;;;;4928569;28;20557;-70
2023/01/09 15:03:44;;;;;;;5.85;1.00;;;;;;;;;;4934218;28;20477;-70
2023/01/09 15:06:16;;;;;;;6.35;1.00;;;;;;;;;;4928198;28;20353;-71
2023/01/09 15:08:45;;;;;;;3.92;0.90;;;;;;;;;;4933504;28;20038;-70
2023/01/09 15:11:11;;;;;;;3.97;0.80;;;;;;;;;;4927578;28;20608;-71
2023/01/09 15:13:41;;;;;;;5.80;1.00;;;;;;;;;;4931227;28;20058;-71
2023/01/09 15:16:15;;;;;;;4.15;0.80;;;;;;;;;;4930188;28;20511;-72
2023/01/09 15:18:42;;;;;;;5.75;1.20;;;;;;;;;;4938933;28;20057;-70